sensor_id;sensor_type;location;lat;lon;timestamp;P1;durP1;ratioP1;P2;durP2;ratioP2
3259;SDS011;68938;48.150;14.004;2024-02-23T00:02:05;13.10;;;11.80;;
3259;SDS011;68938;48.150;14.004;2024-02-23T00:04:32;14.23;;;12.70;;
3259;SDS011;68938;48.150;14.004;2024-02-23T00:06:59;17.03;;;13.10;;
3259;SDS011;68938;48.150;14.004;2024-02-23T00:09:26;14.40;;;12.83;;
3259;SDS011;68938;48.150;14.004;2024-02-23T00:11:53;17.20;;;13.47;;
3259;SDS011;68938;48.150;14.004;2024-02-23T00:14:20;19.40;;;14.10;;
3259;SDS011;68938;48.150;14.004;2024-02-23T00:16:47;14.53;;;13.03;;
3259;SDS011;68938;48.150;14.004;2024-02-23T00:19:14;16.13;;;13.53;;
3259;SDS011;68938;48.150;14.004;2024-02-23T00:21:41;19.60;;;14.70;;
3259;SDS011;68938;48.150;14.004;2024-02-23T00:24:08;16.70;;;13.00;;
3259;SDS011;68938;48.150;14.004;2024-02-23T00:26:35;14.30;;;12.57;;
3259;SDS011;68938;48.150;14.004;2024-02-23T00:29:02;13.07;;;11.77;;
3259;SDS011;68938;48.150;14.004;2024-02-23T00:31:29;14.47;;;12.80;;
3259;SDS011;68938;48.150;14.004;2024-02-23T00:33:56;18.07;;;14.27;;
3259;SDS011;68938;48.150;14.004;2024-02-23T00:36:23;15.13;;;13.53;;
3259;SDS011;68938;48.150;14.004;2024-02-23T00:38:50;14.80;;;13.40;;
3259;SDS011;68938;48.150;14.004;2024-02-23T00:41:17;17.63;;;15.60;;
3259;SDS011;68938;48.150;14.004;2024-02-23T00:43:44;15.40;;;13.80;;
3259;SDS011;68938;48.150;14.004;2024-02-23T00:46:11;15.13;;;12.60;;
3259;SDS011;68938;48.150;14.004;2024-02-23T00:48:41;18.67;;;13.03;;
3259;SDS011;68938;48.150;14.004;2024-02-23T00:51:08;18.10;;;13.57;;
3259;SDS011;68938;48.150;14.004;2024-02-23T00:53:35;19.93;;;14.07;;
3259;SDS011;68938;48.150;14.004;2024-02-23T00:56:02;18.10;;;14.00;;
3259;SDS011;68938;48.150;14.004;2024-02-23T00:58:29;15.13;;;13.23;;
3259;SDS011;68938;48.150;14.004;2024-02-23T01:00:56;14.57;;;13.07;;
3259;SDS011;68938;48.150;14.004;2024-02-23T01:03:23;17.07;;;13.87;;
3259;SDS011;68938;48.150;14.004;2024-02-23T01:05:50;15.43;;;14.00;;
3259;SDS011;68938;48.150;14.004;2024-02-23T01:08:17;16.90;;;14.50;;
3259;SDS011;68938;48.150;14.004;2024-02-23T01:10:44;15.50;;;14.10;;
3259;SDS011;68938;48.150;14.004;2024-02-23T01:13:11;19.80;;;16.10;;
3259;SDS011;68938;48.150;14.004;2024-02-23T01:15:38;20.57;;;16.03;;
3259;SDS011;68938;48.150;14.004;2024-02-23T01:18:06;17.70;;;15.17;;
3259;SDS011;68938;48.150;14.004;2024-02-23T01:20:33;17.50;;;15.33;;
3259;SDS011;68938;48.150;14.004;2024-02-23T01:23:00;16.80;;;15.00;;
3259;SDS011;68938;48.150;14.004;2024-02-23T01:25:27;18.80;;;15.30;;
3259;SDS011;68938;48.150;14.004;2024-02-23T01:27:55;18.23;;;16.20;;
3259;SDS011;68938;48.150;14.004;2024-02-23T01:30:22;19.40;;;17.27;;
3259;SDS011;68938;48.150;14.004;2024-02-23T01:32:49;17.60;;;15.47;;
3259;SDS011;68938;48.150;14.004;2024-02-23T01:35:16;20.37;;;17.43;;
3259;SDS011;68938;48.150;14.004;2024-02-23T01:37:43;16.50;;;14.80;;
3259;SDS011;68938;48.150;14.004;2024-02-23T01:40:10;18.37;;;16.30;;
3259;SDS011;68938;48.150;14.004;2024-02-23T01:42:37;12.97;;;11.20;;
3259;SDS011;68938;48.150;14.004;2024-02-23T01:45:04;7.47;;;6.77;;
3259;SDS011;68938;48.150;14.004;2024-02-23T01:47:32;4.80;;;3.80;;
3259;SDS011;68938;48.150;14.004;2024-02-23T01:49:59;3.00;;;2.67;;
3259;SDS011;68938;48.150;14.004;2024-02-23T01:52:27;3.63;;;2.90;;
3259;SDS011;68938;48.150;14.004;2024-02-23T01:54:54;2.30;;;2.20;;
3259;SDS011;68938;48.150;14.004;2024-02-23T01:57:22;1.80;;;1.70;;
3259;SDS011;68938;48.150;14.004;2024-02-23T02:00:11;1.90;;;1.80;;
3259;SDS011;68938;48.150;14.004;2024-02-23T02:02:44;1.80;;;1.70;;
3259;SDS011;68938;48.150;14.004;2024-02-23T02:05:11;1.83;;;1.73;;
3259;SDS011;68938;48.150;14.004;2024-02-23T02:07:38;1.80;;;1.70;;
3259;SDS011;68938;48.150;14.004;2024-02-23T02:10:08;1.43;;;1.30;;
3259;SDS011;68938;48.150;14.004;2024-02-23T02:12:36;1.77;;;1.33;;
3259;SDS011;68938;48.150;14.004;2024-02-23T02:15:03;1.87;;;1.77;;
3259;SDS011;68938;48.150;14.004;2024-02-23T02:17:31;1.63;;;1.37;;
3259;SDS011;68938;48.150;14.004;2024-02-23T02:20:03;1.43;;;1.33;;
3259;SDS011;68938;48.150;14.004;2024-02-23T02:22:32;1.17;;;1.17;;
3259;SDS011;68938;48.150;14.004;2024-02-23T02:24:59;2.43;;;1.70;;
3259;SDS011;68938;48.150;14.004;2024-02-23T02:27:26;2.00;;;1.90;;
3259;SDS011;68938;48.150;14.004;2024-02-23T02:29:54;2.30;;;2.20;;
3259;SDS011;68938;48.150;14.004;2024-02-23T02:32:21;2.50;;;2.40;;
3259;SDS011;68938;48.150;14.004;2024-02-23T02:34:48;2.80;;;2.60;;
3259;SDS011;68938;48.150;14.004;2024-02-23T02:37:15;2.50;;;2.40;;
3259;SDS011;68938;48.150;14.004;2024-02-23T02:39:42;3.70;;;2.40;;
3259;SDS011;68938;48.150;14.004;2024-02-23T02:42:09;2.60;;;2.40;;
3259;SDS011;68938;48.150;14.004;2024-02-23T02:44:36;3.07;;;2.70;;
3259;SDS011;68938;48.150;14.004;2024-02-23T02:47:03;2.70;;;2.50;;
3259;SDS011;68938;48.150;14.004;2024-02-23T02:49:30;3.47;;;3.17;;
3259;SDS011;68938;48.150;14.004;2024-02-23T02:51:57;3.03;;;2.80;;
3259;SDS011;68938;48.150;14.004;2024-02-23T02:54:23;3.10;;;2.90;;
3259;SDS011;68938;48.150;14.004;2024-02-23T02:56:50;3.30;;;3.10;;
3259;SDS011;68938;48.150;14.004;2024-02-23T02:59:17;2.90;;;2.70;;
3259;SDS011;68938;48.150;14.004;2024-02-23T03:01:44;2.80;;;2.70;;
3259;SDS011;68938;48.150;14.004;2024-02-23T03:04:11;2.70;;;2.50;;
3259;SDS011;68938;48.150;14.004;2024-02-23T03:06:39;3.17;;;2.97;;
3259;SDS011;68938;48.150;14.004;2024-02-23T03:09:06;2.80;;;2.60;;
3259;SDS011;68938;48.150;14.004;2024-02-23T03:11:33;2.93;;;2.83;;
3259;SDS011;68938;48.150;14.004;2024-02-23T03:14:00;3.33;;;3.13;;
3259;SDS011;68938;48.150;14.004;2024-02-23T03:16:28;2.70;;;2.50;;
3259;SDS011;68938;48.150;14.004;2024-02-23T03:18:54;3.10;;;2.90;;
3259;SDS011;68938;48.150;14.004;2024-02-23T03:21:21;3.23;;;3.13;;
3259;SDS011;68938;48.150;14.004;2024-02-23T03:23:48;2.80;;;2.60;;
3259;SDS011;68938;48.150;14.004;2024-02-23T03:26:15;2.40;;;2.30;;
3259;SDS011;68938;48.150;14.004;2024-02-23T03:28:42;2.23;;;2.13;;
3259;SDS011;68938;48.150;14.004;2024-02-23T03:31:09;2.60;;;2.40;;
3259;SDS011;68938;48.150;14.004;2024-02-23T03:33:36;2.13;;;2.03;;
3259;SDS011;68938;48.150;14.004;2024-02-23T03:36:04;1.80;;;1.80;;
3259;SDS011;68938;48.150;14.004;2024-02-23T03:38:31;2.00;;;1.90;;
3259;SDS011;68938;48.150;14.004;2024-02-23T03:40:58;1.80;;;1.70;;
3259;SDS011;68938;48.150;14.004;2024-02-23T03:43:25;1.97;;;1.87;;
3259;SDS011;68938;48.150;14.004;2024-02-23T03:45:52;1.73;;;1.67;;
3259;SDS011;68938;48.150;14.004;2024-02-23T03:48:19;1.80;;;1.70;;
3259;SDS011;68938;48.150;14.004;2024-02-23T03:50:46;1.93;;;1.80;;
3259;SDS011;68938;48.150;14.004;2024-02-23T03:53:13;1.70;;;1.60;;
3259;SDS011;68938;48.150;14.004;2024-02-23T03:55:40;1.47;;;1.20;;
3259;SDS011;68938;48.150;14.004;2024-02-23T03:58:07;1.25;;;1.25;;
3259;SDS011;68938;48.150;14.004;2024-02-23T04:00:34;2.23;;;1.13;;
3259;SDS011;68938;48.150;14.004;2024-02-23T04:03:01;1.10;;;1.10;;
3259;SDS011;68938;48.150;14.004;2024-02-23T04:05:27;1.67;;;1.57;;
3259;SDS011;68938;48.150;14.004;2024-02-23T04:07:54;1.23;;;1.23;;
3259;SDS011;68938;48.150;14.004;2024-02-23T04:10:21;2.10;;;1.00;;
3259;SDS011;68938;48.150;14.004;2024-02-23T04:12:48;1.40;;;1.40;;
3259;SDS011;68938;48.150;14.004;2024-02-23T04:15:15;1.40;;;1.07;;
3259;SDS011;68938;48.150;14.004;2024-02-23T04:17:42;0.80;;;0.80;;
3259;SDS011;68938;48.150;14.004;2024-02-23T04:20:09;0.97;;;0.97;;
3259;SDS011;68938;48.150;14.004;2024-02-23T04:22:37;0.80;;;0.80;;
3259;SDS011;68938;48.150;14.004;2024-02-23T04:25:04;0.93;;;0.93;;
3259;SDS011;68938;48.150;14.004;2024-02-23T04:27:31;0.90;;;0.90;;
3259;SDS011;68938;48.150;14.004;2024-02-23T04:29:58;1.37;;;0.80;;
3259;SDS011;68938;48.150;14.004;2024-02-23T04:32:25;0.97;;;0.83;;
3259;SDS011;68938;48.150;14.004;2024-02-23T04:34:52;0.80;;;0.80;;
3259;SDS011;68938;48.150;14.004;2024-02-23T04:37:19;0.80;;;0.80;;
3259;SDS011;68938;48.150;14.004;2024-02-23T04:39:46;0.80;;;0.80;;
3259;SDS011;68938;48.150;14.004;2024-02-23T04:42:13;0.80;;;0.80;;
3259;SDS011;68938;48.150;14.004;2024-02-23T04:44:43;0.70;;;0.70;;
3259;SDS011;68938;48.150;14.004;2024-02-23T04:47:10;0.70;;;0.70;;
3259;SDS011;68938;48.150;14.004;2024-02-23T04:49:37;0.80;;;0.80;;
3259;SDS011;68938;48.150;14.004;2024-02-23T04:52:05;0.60;;;0.60;;
3259;SDS011;68938;48.150;14.004;2024-02-23T04:54:34;0.73;;;0.67;;
3259;SDS011;68938;48.150;14.004;2024-02-23T04:57:01;0.70;;;0.70;;
3259;SDS011;68938;48.150;14.004;2024-02-23T04:59:28;0.70;;;0.70;;
3259;SDS011;68938;48.150;14.004;2024-02-23T05:01:55;0.80;;;0.80;;
3259;SDS011;68938;48.150;14.004;2024-02-23T05:04:22;1.10;;;0.83;;
3259;SDS011;68938;48.150;14.004;2024-02-23T05:06:49;0.80;;;0.80;;
3259;SDS011;68938;48.150;14.004;2024-02-23T05:09:16;0.63;;;0.60;;
3259;SDS011;68938;48.150;14.004;2024-02-23T05:11:43;0.80;;;0.80;;
3259;SDS011;68938;48.150;14.004;2024-02-23T05:14:10;0.70;;;0.70;;
3259;SDS011;68938;48.150;14.004;2024-02-23T05:16:37;0.87;;;0.87;;
3259;SDS011;68938;48.150;14.004;2024-02-23T05:19:04;0.70;;;0.70;;
3259;SDS011;68938;48.150;14.004;2024-02-23T05:21:31;0.70;;;0.70;;
3259;SDS011;68938;48.150;14.004;2024-02-23T05:23:58;0.70;;;0.70;;
3259;SDS011;68938;48.150;14.004;2024-02-23T05:26:25;0.90;;;0.90;;
3259;SDS011;68938;48.150;14.004;2024-02-23T05:28:51;0.70;;;0.70;;
3259;SDS011;68938;48.150;14.004;2024-02-23T05:31:18;0.90;;;0.90;;
3259;SDS011;68938;48.150;14.004;2024-02-23T05:33:45;0.70;;;0.70;;
3259;SDS011;68938;48.150;14.004;2024-02-23T05:36:15;0.70;;;0.70;;
3259;SDS011;68938;48.150;14.004;2024-02-23T05:38:42;0.83;;;0.83;;
3259;SDS011;68938;48.150;14.004;2024-02-23T05:41:12;0.80;;;0.80;;
3259;SDS011;68938;48.150;14.004;2024-02-23T05:43:39;1.00;;;1.00;;
3259;SDS011;68938;48.150;14.004;2024-02-23T05:46:06;1.43;;;1.00;;
3259;SDS011;68938;48.150;14.004;2024-02-23T05:48:33;1.40;;;1.30;;
3259;SDS011;68938;48.150;14.004;2024-02-23T05:51:00;0.80;;;0.80;;
3259;SDS011;68938;48.150;14.004;2024-02-23T05:53:27;0.70;;;0.70;;
3259;SDS011;68938;48.150;14.004;2024-02-23T05:55:54;0.73;;;0.73;;
3259;SDS011;68938;48.150;14.004;2024-02-23T05:58:21;0.83;;;0.83;;
3259;SDS011;68938;48.150;14.004;2024-02-23T06:00:48;0.80;;;0.80;;
3259;SDS011;68938;48.150;14.004;2024-02-23T06:03:15;1.00;;;1.00;;
3259;SDS011;68938;48.150;14.004;2024-02-23T06:05:42;1.23;;;0.80;;
3259;SDS011;68938;48.150;14.004;2024-02-23T06:08:09;1.03;;;0.90;;
3259;SDS011;68938;48.150;14.004;2024-02-23T06:10:36;1.03;;;1.03;;
3259;SDS011;68938;48.150;14.004;2024-02-23T06:13:03;1.27;;;1.27;;
3259;SDS011;68938;48.150;14.004;2024-02-23T06:15:30;1.30;;;1.20;;
3259;SDS011;68938;48.150;14.004;2024-02-23T06:17:57;3.30;;;1.00;;
3259;SDS011;68938;48.150;14.004;2024-02-23T06:20:24;0.90;;;0.90;;
3259;SDS011;68938;48.150;14.004;2024-02-23T06:22:51;0.97;;;0.90;;
3259;SDS011;68938;48.150;14.004;2024-02-23T06:25:18;0.70;;;0.70;;
3259;SDS011;68938;48.150;14.004;2024-02-23T06:27:45;0.90;;;0.77;;
3259;SDS011;68938;48.150;14.004;2024-02-23T06:30:12;0.70;;;0.70;;
3259;SDS011;68938;48.150;14.004;2024-02-23T06:32:39;0.80;;;0.80;;
3259;SDS011;68938;48.150;14.004;2024-02-23T06:35:07;2.00;;;1.10;;
3259;SDS011;68938;48.150;14.004;2024-02-23T06:37:34;1.13;;;0.70;;
3259;SDS011;68938;48.150;14.004;2024-02-23T06:40:01;0.83;;;0.83;;
3259;SDS011;68938;48.150;14.004;2024-02-23T06:42:28;1.13;;;0.90;;
3259;SDS011;68938;48.150;14.004;2024-02-23T06:44:55;2.57;;;0.83;;
3259;SDS011;68938;48.150;14.004;2024-02-23T06:47:22;0.90;;;0.90;;
3259;SDS011;68938;48.150;14.004;2024-02-23T06:49:49;0.97;;;0.87;;
3259;SDS011;68938;48.150;14.004;2024-02-23T06:52:16;0.80;;;0.80;;
3259;SDS011;68938;48.150;14.004;2024-02-23T06:54:43;0.97;;;0.93;;
3259;SDS011;68938;48.150;14.004;2024-02-23T06:57:10;18.40;;;9.10;;
3259;SDS011;68938;48.150;14.004;2024-02-23T06:59:37;87.37;;;36.07;;
3259;SDS011;68938;48.150;14.004;2024-02-23T07:02:04;68.87;;;28.57;;
3259;SDS011;68938;48.150;14.004;2024-02-23T07:04:31;34.87;;;15.10;;
3259;SDS011;68938;48.150;14.004;2024-02-23T07:06:58;31.40;;;12.63;;
3259;SDS011;68938;48.150;14.004;2024-02-23T07:09:25;11.13;;;6.30;;
3259;SDS011;68938;48.150;14.004;2024-02-23T07:11:52;7.30;;;5.43;;
3259;SDS011;68938;48.150;14.004;2024-02-23T07:14:19;5.07;;;3.00;;
3259;SDS011;68938;48.150;14.004;2024-02-23T07:16:46;4.70;;;3.63;;
3259;SDS011;68938;48.150;14.004;2024-02-23T07:19:13;5.27;;;4.13;;
3259;SDS011;68938;48.150;14.004;2024-02-23T07:21:40;7.10;;;2.90;;
3259;SDS011;68938;48.150;14.004;2024-02-23T07:24:09;2.63;;;2.07;;
3259;SDS011;68938;48.150;14.004;2024-02-23T07:26:36;3.30;;;1.83;;
3259;SDS011;68938;48.150;14.004;2024-02-23T07:29:03;2.07;;;1.10;;
3259;SDS011;68938;48.150;14.004;2024-02-23T07:31:30;1.93;;;1.67;;
3259;SDS011;68938;48.150;14.004;2024-02-23T07:33:57;2.80;;;1.67;;
3259;SDS011;68938;48.150;14.004;2024-02-23T07:36:24;1.67;;;1.57;;
3259;SDS011;68938;48.150;14.004;2024-02-23T07:38:51;6.83;;;1.43;;
3259;SDS011;68938;48.150;14.004;2024-02-23T07:41:18;1.80;;;1.30;;
3259;SDS011;68938;48.150;14.004;2024-02-23T07:43:45;1.30;;;1.30;;
3259;SDS011;68938;48.150;14.004;2024-02-23T07:46:12;1.90;;;1.80;;
3259;SDS011;68938;48.150;14.004;2024-02-23T07:48:39;1.43;;;1.30;;
3259;SDS011;68938;48.150;14.004;2024-02-23T07:51:07;2.00;;;1.90;;
3259;SDS011;68938;48.150;14.004;2024-02-23T07:53:34;1.27;;;1.17;;
3259;SDS011;68938;48.150;14.004;2024-02-23T07:56:01;1.00;;;0.90;;
3259;SDS011;68938;48.150;14.004;2024-02-23T07:58:29;0.90;;;0.90;;
3259;SDS011;68938;48.150;14.004;2024-02-23T08:00:56;0.93;;;0.93;;
3259;SDS011;68938;48.150;14.004;2024-02-23T08:03:23;1.80;;;1.27;;
3259;SDS011;68938;48.150;14.004;2024-02-23T08:06:00;2.00;;;1.80;;
3259;SDS011;68938;48.150;14.004;2024-02-23T08:08:29;1.07;;;0.83;;
3259;SDS011;68938;48.150;14.004;2024-02-23T08:10:56;1.50;;;1.00;;
3259;SDS011;68938;48.150;14.004;2024-02-23T08:13:23;2.60;;;1.00;;
3259;SDS011;68938;48.150;14.004;2024-02-23T08:15:50;1.10;;;1.10;;
3259;SDS011;68938;48.150;14.004;2024-02-23T08:18:17;2.87;;;0.97;;
3259;SDS011;68938;48.150;14.004;2024-02-23T08:20:45;0.80;;;0.80;;
3259;SDS011;68938;48.150;14.004;2024-02-23T08:23:12;0.90;;;0.90;;
3259;SDS011;68938;48.150;14.004;2024-02-23T08:25:39;3.40;;;0.90;;
3259;SDS011;68938;48.150;14.004;2024-02-23T08:28:07;1.83;;;1.10;;
3259;SDS011;68938;48.150;14.004;2024-02-23T08:30:34;1.20;;;1.20;;
3259;SDS011;68938;48.150;14.004;2024-02-23T08:33:01;1.50;;;1.40;;
3259;SDS011;68938;48.150;14.004;2024-02-23T08:35:28;1.30;;;1.30;;
3259;SDS011;68938;48.150;14.004;2024-02-23T08:37:55;2.87;;;1.50;;
3259;SDS011;68938;48.150;14.004;2024-02-23T08:40:22;1.60;;;1.50;;
3259;SDS011;68938;48.150;14.004;2024-02-23T08:42:49;0.90;;;0.90;;
3259;SDS011;68938;48.150;14.004;2024-02-23T08:45:16;2.27;;;2.17;;
3259;SDS011;68938;48.150;14.004;2024-02-23T08:47:43;2.27;;;1.10;;
3259;SDS011;68938;48.150;14.004;2024-02-23T08:50:10;1.00;;;1.00;;
3259;SDS011;68938;48.150;14.004;2024-02-23T08:52:37;1.93;;;1.30;;
3259;SDS011;68938;48.150;14.004;2024-02-23T08:55:04;2.30;;;1.10;;
3259;SDS011;68938;48.150;14.004;2024-02-23T08:57:31;1.50;;;1.40;;
3259;SDS011;68938;48.150;14.004;2024-02-23T08:59:58;1.70;;;1.60;;
3259;SDS011;68938;48.150;14.004;2024-02-23T09:02:25;0.93;;;0.93;;
3259;SDS011;68938;48.150;14.004;2024-02-23T09:04:52;1.20;;;1.10;;
3259;SDS011;68938;48.150;14.004;2024-02-23T09:07:19;1.53;;;1.20;;
3259;SDS011;68938;48.150;14.004;2024-02-23T09:09:46;2.63;;;1.20;;
3259;SDS011;68938;48.150;14.004;2024-02-23T09:12:14;0.93;;;0.93;;
3259;SDS011;68938;48.150;14.004;2024-02-23T09:14:42;0.97;;;0.97;;
3259;SDS011;68938;48.150;14.004;2024-02-23T09:17:10;0.70;;;0.70;;
3259;SDS011;68938;48.150;14.004;2024-02-23T09:19:37;0.80;;;0.80;;
3259;SDS011;68938;48.150;14.004;2024-02-23T09:22:04;0.80;;;0.80;;
3259;SDS011;68938;48.150;14.004;2024-02-23T09:24:31;0.80;;;0.80;;
3259;SDS011;68938;48.150;14.004;2024-02-23T09:26:58;0.70;;;0.70;;
3259;SDS011;68938;48.150;14.004;2024-02-23T09:29:25;0.70;;;0.70;;
3259;SDS011;68938;48.150;14.004;2024-02-23T09:31:52;0.90;;;0.90;;
3259;SDS011;68938;48.150;14.004;2024-02-23T09:34:19;1.23;;;0.80;;
3259;SDS011;68938;48.150;14.004;2024-02-23T09:36:46;1.00;;;1.00;;
3259;SDS011;68938;48.150;14.004;2024-02-23T09:39:14;1.00;;;1.00;;
3259;SDS011;68938;48.150;14.004;2024-02-23T09:41:42;1.10;;;1.10;;
3259;SDS011;68938;48.150;14.004;2024-02-23T09:44:10;1.10;;;1.00;;
3259;SDS011;68938;48.150;14.004;2024-02-23T09:46:38;1.00;;;1.00;;
3259;SDS011;68938;48.150;14.004;2024-02-23T09:49:06;0.93;;;0.93;;
3259;SDS011;68938;48.150;14.004;2024-02-23T09:51:35;1.00;;;1.00;;
3259;SDS011;68938;48.150;14.004;2024-02-23T09:54:02;1.10;;;1.00;;
3259;SDS011;68938;48.150;14.004;2024-02-23T09:56:29;0.97;;;0.97;;
3259;SDS011;68938;48.150;14.004;2024-02-23T09:58:59;0.77;;;0.77;;
3259;SDS011;68938;48.150;14.004;2024-02-23T10:01:29;0.90;;;0.90;;
3259;SDS011;68938;48.150;14.004;2024-02-23T10:03:59;0.70;;;0.70;;
3259;SDS011;68938;48.150;14.004;2024-02-23T10:06:29;1.23;;;0.70;;
3259;SDS011;68938;48.150;14.004;2024-02-23T10:08:56;2.53;;;0.80;;
3259;SDS011;68938;48.150;14.004;2024-02-23T10:11:23;1.30;;;0.97;;
3259;SDS011;68938;48.150;14.004;2024-02-23T10:13:51;0.80;;;0.80;;
3259;SDS011;68938;48.150;14.004;2024-02-23T10:16:19;0.80;;;0.80;;
3259;SDS011;68938;48.150;14.004;2024-02-23T10:18:48;1.07;;;1.07;;
3259;SDS011;68938;48.150;14.004;2024-02-23T10:21:15;0.80;;;0.80;;
3259;SDS011;68938;48.150;14.004;2024-02-23T10:23:46;0.97;;;0.97;;
3259;SDS011;68938;48.150;14.004;2024-02-23T10:26:14;1.20;;;1.10;;
3259;SDS011;68938;48.150;14.004;2024-02-23T10:28:41;1.57;;;0.80;;
3259;SDS011;68938;48.150;14.004;2024-02-23T10:31:08;0.80;;;0.80;;
3259;SDS011;68938;48.150;14.004;2024-02-23T10:33:39;2.10;;;0.90;;
3259;SDS011;68938;48.150;14.004;2024-02-23T10:36:07;0.90;;;0.70;;
3259;SDS011;68938;48.150;14.004;2024-02-23T10:38:34;1.07;;;1.07;;
3259;SDS011;68938;48.150;14.004;2024-02-23T10:41:05;0.77;;;0.77;;
3259;SDS011;68938;48.150;14.004;2024-02-23T10:43:38;1.00;;;0.97;;
3259;SDS011;68938;48.150;14.004;2024-02-23T10:46:15;2.10;;;1.00;;
3259;SDS011;68938;48.150;14.004;2024-02-23T10:48:43;0.83;;;0.83;;
3259;SDS011;68938;48.150;14.004;2024-02-23T10:51:13;0.80;;;0.80;;
3259;SDS011;68938;48.150;14.004;2024-02-23T10:53:46;0.90;;;0.90;;
3259;SDS011;68938;48.150;14.004;2024-02-23T10:56:15;1.10;;;1.00;;
3259;SDS011;68938;48.150;14.004;2024-02-23T10:58:42;1.10;;;0.90;;
3259;SDS011;68938;48.150;14.004;2024-02-23T11:01:09;0.70;;;0.70;;
3259;SDS011;68938;48.150;14.004;2024-02-23T11:03:40;0.80;;;0.80;;
3259;SDS011;68938;48.150;14.004;2024-02-23T11:06:10;0.80;;;0.80;;
3259;SDS011;68938;48.150;14.004;2024-02-23T11:08:38;0.80;;;0.80;;
3259;SDS011;68938;48.150;14.004;2024-02-23T11:11:09;0.80;;;0.80;;
3259;SDS011;68938;48.150;14.004;2024-02-23T11:13:38;2.50;;;1.00;;
3259;SDS011;68938;48.150;14.004;2024-02-23T11:16:07;1.00;;;1.00;;
3259;SDS011;68938;48.150;14.004;2024-02-23T11:18:35;1.20;;;1.10;;
3259;SDS011;68938;48.150;14.004;2024-02-23T11:21:04;0.90;;;0.90;;
3259;SDS011;68938;48.150;14.004;2024-02-23T11:23:42;1.00;;;0.90;;
3259;SDS011;68938;48.150;14.004;2024-02-23T11:26:15;0.80;;;0.80;;
3259;SDS011;68938;48.150;14.004;2024-02-23T11:28:48;0.80;;;0.80;;
3259;SDS011;68938;48.150;14.004;2024-02-23T11:31:20;1.00;;;1.00;;
3259;SDS011;68938;48.150;14.004;2024-02-23T11:33:50;0.80;;;0.80;;
3259;SDS011;68938;48.150;14.004;2024-02-23T11:36:22;0.80;;;0.80;;
3259;SDS011;68938;48.150;14.004;2024-02-23T11:38:53;0.90;;;0.90;;
3259;SDS011;68938;48.150;14.004;2024-02-23T11:41:24;1.43;;;1.00;;
3259;SDS011;68938;48.150;14.004;2024-02-23T11:43:53;0.93;;;0.93;;
3259;SDS011;68938;48.150;14.004;2024-02-23T11:46:21;1.10;;;1.10;;
3259;SDS011;68938;48.150;14.004;2024-02-23T11:48:49;1.37;;;1.20;;
3259;SDS011;68938;48.150;14.004;2024-02-23T11:51:16;2.20;;;1.30;;
3259;SDS011;68938;48.150;14.004;2024-02-23T11:53:43;1.23;;;1.10;;
3259;SDS011;68938;48.150;14.004;2024-02-23T11:56:10;0.90;;;0.90;;
3259;SDS011;68938;48.150;14.004;2024-02-23T11:58:37;0.83;;;0.83;;
3259;SDS011;68938;48.150;14.004;2024-02-23T12:01:04;0.80;;;0.80;;
3259;SDS011;68938;48.150;14.004;2024-02-23T12:03:31;0.87;;;0.87;;
3259;SDS011;68938;48.150;14.004;2024-02-23T12:06:01;1.00;;;1.00;;
3259;SDS011;68938;48.150;14.004;2024-02-23T12:08:30;0.93;;;0.90;;
3259;SDS011;68938;48.150;14.004;2024-02-23T12:10:57;0.80;;;0.80;;
3259;SDS011;68938;48.150;14.004;2024-02-23T12:13:25;1.00;;;1.00;;
3259;SDS011;68938;48.150;14.004;2024-02-23T12:15:53;1.10;;;1.00;;
3259;SDS011;68938;48.150;14.004;2024-02-23T12:18:23;1.40;;;1.30;;
3259;SDS011;68938;48.150;14.004;2024-02-23T12:20:50;0.67;;;0.67;;
3259;SDS011;68938;48.150;14.004;2024-02-23T12:23:18;2.00;;;1.00;;
3259;SDS011;68938;48.150;14.004;2024-02-23T12:25:53;1.03;;;0.90;;
3259;SDS011;68938;48.150;14.004;2024-02-23T12:28:23;0.90;;;0.90;;
3259;SDS011;68938;48.150;14.004;2024-02-23T12:31:00;0.90;;;0.90;;
3259;SDS011;68938;48.150;14.004;2024-02-23T12:33:28;0.70;;;0.70;;
3259;SDS011;68938;48.150;14.004;2024-02-23T12:36:00;0.90;;;0.90;;
3259;SDS011;68938;48.150;14.004;2024-02-23T12:38:28;0.87;;;0.87;;
3259;SDS011;68938;48.150;14.004;2024-02-23T12:40:56;0.70;;;0.70;;
3259;SDS011;68938;48.150;14.004;2024-02-23T12:43:23;2.60;;;0.90;;
3259;SDS011;68938;48.150;14.004;2024-02-23T12:45:53;1.23;;;1.23;;
3259;SDS011;68938;48.150;14.004;2024-02-23T12:48:21;0.90;;;0.90;;
3259;SDS011;68938;48.150;14.004;2024-02-23T12:50:49;1.43;;;1.27;;
3259;SDS011;68938;48.150;14.004;2024-02-23T12:53:35;1.67;;;1.57;;
3259;SDS011;68938;48.150;14.004;2024-02-23T12:56:09;1.20;;;1.20;;
3259;SDS011;68938;48.150;14.004;2024-02-23T12:58:38;1.10;;;1.10;;
3259;SDS011;68938;48.150;14.004;2024-02-23T13:01:07;1.63;;;1.23;;
3259;SDS011;68938;48.150;14.004;2024-02-23T13:03:35;1.27;;;1.27;;
3259;SDS011;68938;48.150;14.004;2024-02-23T13:06:04;3.03;;;1.30;;
3259;SDS011;68938;48.150;14.004;2024-02-23T13:08:32;1.50;;;1.40;;
3259;SDS011;68938;48.150;14.004;2024-02-23T13:10:59;3.47;;;1.20;;
3259;SDS011;68938;48.150;14.004;2024-02-23T13:13:27;2.50;;;1.57;;
3259;SDS011;68938;48.150;14.004;2024-02-23T13:15:54;1.77;;;1.70;;
3259;SDS011;68938;48.150;14.004;2024-02-23T13:18:21;2.47;;;1.60;;
3259;SDS011;68938;48.150;14.004;2024-02-23T13:20:49;1.47;;;1.37;;
3259;SDS011;68938;48.150;14.004;2024-02-23T13:23:16;1.70;;;1.60;;
3259;SDS011;68938;48.150;14.004;2024-02-23T13:25:44;1.87;;;1.77;;
3259;SDS011;68938;48.150;14.004;2024-02-23T13:28:11;1.23;;;1.20;;
3259;SDS011;68938;48.150;14.004;2024-02-23T13:30:38;1.60;;;1.50;;
3259;SDS011;68938;48.150;14.004;2024-02-23T13:33:06;1.70;;;1.60;;
3259;SDS011;68938;48.150;14.004;2024-02-23T13:35:35;1.47;;;1.33;;
3259;SDS011;68938;48.150;14.004;2024-02-23T13:38:02;1.53;;;1.43;;
3259;SDS011;68938;48.150;14.004;2024-02-23T13:40:30;1.83;;;1.73;;
3259;SDS011;68938;48.150;14.004;2024-02-23T13:42:57;2.13;;;1.93;;
3259;SDS011;68938;48.150;14.004;2024-02-23T13:45:24;2.17;;;2.07;;
3259;SDS011;68938;48.150;14.004;2024-02-23T13:47:58;2.80;;;2.60;;
3259;SDS011;68938;48.150;14.004;2024-02-23T13:50:27;2.40;;;1.93;;
3259;SDS011;68938;48.150;14.004;2024-02-23T13:52:55;2.50;;;2.40;;
3259;SDS011;68938;48.150;14.004;2024-02-23T13:55:23;2.47;;;2.27;;
3259;SDS011;68938;48.150;14.004;2024-02-23T13:57:50;2.50;;;2.40;;
3259;SDS011;68938;48.150;14.004;2024-02-23T14:00:17;2.67;;;2.57;;
3259;SDS011;68938;48.150;14.004;2024-02-23T14:02:46;4.10;;;3.00;;
3259;SDS011;68938;48.150;14.004;2024-02-23T14:05:14;2.80;;;2.70;;
3259;SDS011;68938;48.150;14.004;2024-02-23T14:07:42;2.83;;;2.73;;
3259;SDS011;68938;48.150;14.004;2024-02-23T14:10:09;3.40;;;3.20;;
3259;SDS011;68938;48.150;14.004;2024-02-23T14:12:37;3.40;;;3.20;;
3259;SDS011;68938;48.150;14.004;2024-02-23T14:15:04;3.63;;;3.43;;
3259;SDS011;68938;48.150;14.004;2024-02-23T14:17:32;3.27;;;3.07;;
3259;SDS011;68938;48.150;14.004;2024-02-23T14:19:59;3.37;;;3.17;;
3259;SDS011;68938;48.150;14.004;2024-02-23T14:22:27;4.00;;;2.70;;
3259;SDS011;68938;48.150;14.004;2024-02-23T14:24:54;1.90;;;1.80;;
3259;SDS011;68938;48.150;14.004;2024-02-23T14:27:21;2.50;;;2.40;;
3259;SDS011;68938;48.150;14.004;2024-02-23T14:29:48;2.40;;;2.30;;
3259;SDS011;68938;48.150;14.004;2024-02-23T14:32:19;4.10;;;1.87;;
3259;SDS011;68938;48.150;14.004;2024-02-23T14:34:46;1.70;;;1.60;;
3259;SDS011;68938;48.150;14.004;2024-02-23T14:37:14;2.50;;;2.30;;
3259;SDS011;68938;48.150;14.004;2024-02-23T14:39:41;2.20;;;2.10;;
3259;SDS011;68938;48.150;14.004;2024-02-23T14:42:12;1.80;;;1.70;;
3259;SDS011;68938;48.150;14.004;2024-02-23T14:44:39;1.47;;;1.37;;
3259;SDS011;68938;48.150;14.004;2024-02-23T14:47:06;1.63;;;1.60;;